createdAt,value
2022-08-18T00:00:20.355Z,0.0
2022-08-18T00:02:16.953Z,0.0
2022-08-18T00:04:34.840Z,0.0
2022-08-18T00:06:16.897Z,0.0
2022-08-18T00:08:16.901Z,0.0
2022-08-18T00:10:19.019Z,0.0
2022-08-18T00:12:16.894Z,0.0
2022-08-18T00:14:21.418Z,0.0
2022-08-18T00:16:16.894Z,0.0
2022-08-18T00:18:16.919Z,0.0
2022-08-18T00:20:16.902Z,0.0
2022-08-18T00:22:16.957Z,0.0
2022-08-18T00:24:16.913Z,1.1
2022-08-18T00:26:16.915Z,1.6
2022-08-18T00:28:16.918Z,0.5
2022-08-18T00:30:16.918Z,0.0
2022-08-18T00:32:16.926Z,0.0
2022-08-18T00:34:16.937Z,0.0
2022-08-18T00:36:16.933Z,0.0
2022-08-18T00:38:24.742Z,0.0
2022-08-18T00:40:17.026Z,0.0
2022-08-18T00:42:26.979Z,0.0
2022-08-18T00:44:16.933Z,0.0
2022-08-18T00:46:16.924Z,0.0
2022-08-18T00:48:16.930Z,0.0
2022-08-18T00:50:17.126Z,0.0
2022-08-18T00:52:16.948Z,0.0
2022-08-18T00:54:16.977Z,0.0
2022-08-18T00:56:16.944Z,0.0
2022-08-18T00:58:16.944Z,0.0
2022-08-18T01:00:16.950Z,0.0
2022-08-18T01:02:16.960Z,0.0
2022-08-18T01:04:16.951Z,0.0
2022-08-18T01:06:16.937Z,0.0
2022-08-18T01:08:16.957Z,0.0
2022-08-18T01:10:16.943Z,0.0
2022-08-18T01:12:44.006Z,0.0
2022-08-18T01:14:16.944Z,0.0
2022-08-18T01:16:16.927Z,0.0
2022-08-18T01:18:16.966Z,0.0
2022-08-18T01:20:17.009Z,0.0
2022-08-18T01:22:16.947Z,0.0
2022-08-18T01:24:21.660Z,0.0
2022-08-18T01:26:17.016Z,0.0
2022-08-18T01:28:16.944Z,0.0
2022-08-18T01:30:16.964Z,0.0
2022-08-18T01:32:16.978Z,0.0
2022-08-18T01:34:16.972Z,0.0
2022-08-18T01:36:17.048Z,0.0
2022-08-18T01:38:16.956Z,0.0
2022-08-18T01:41:23.963Z,0.0
2022-08-18T01:41:29.618Z,0.0
2022-08-18T01:42:17.205Z,0.0
2022-08-18T01:44:16.990Z,0.0
2022-08-18T01:46:16.977Z,0.0
2022-08-18T01:48:16.954Z,0.0
2022-08-18T01:50:16.973Z,0.0
2022-08-18T01:52:16.958Z,0.0
2022-08-18T01:54:16.956Z,0.0
2022-08-18T01:56:16.981Z,0.0
2022-08-18T01:58:16.988Z,0.0
2022-08-18T02:00:16.975Z,0.0
2022-08-18T02:02:18.568Z,0.0
2022-08-18T02:04:34.502Z,0.0
2022-08-18T02:06:16.973Z,0.0
2022-08-18T02:08:16.981Z,0.0
2022-08-18T02:10:17.007Z,0.0
2022-08-18T02:12:17.006Z,0.0
2022-08-18T02:14:17.005Z,0.0
2022-08-18T02:16:17.012Z,0.0
2022-08-18T02:18:39.264Z,0.0
2022-08-18T02:20:17.010Z,0.0
2022-08-18T02:22:17.000Z,0.0
2022-08-18T02:24:17.022Z,0.0
2022-08-18T02:26:16.995Z,0.0
2022-08-18T02:28:17.011Z,0.0
2022-08-18T02:30:17.026Z,0.0
2022-08-18T02:32:17.029Z,0.0
2022-08-18T02:34:17.009Z,0.0
2022-08-18T02:36:17.021Z,0.0
2022-08-18T02:38:17.417Z,0.0
2022-08-18T02:40:17.197Z,0.0
2022-08-18T02:42:17.034Z,0.0
2022-08-18T02:44:17.064Z,0.0
2022-08-18T02:46:17.032Z,0.0
2022-08-18T02:48:17.037Z,0.0
2022-08-18T02:50:17.035Z,0.0
2022-08-18T02:52:17.043Z,0.0
2022-08-18T02:54:17.050Z,0.0
2022-08-18T02:56:17.047Z,0.0
2022-08-18T02:58:17.056Z,0.0
2022-08-18T03:00:18.852Z,0.0
2022-08-18T03:02:17.070Z,0.0
2022-08-18T03:04:17.081Z,0.0
2022-08-18T03:06:17.089Z,0.0
2022-08-18T03:08:17.086Z,0.0
2022-08-18T03:10:31.444Z,0.0
2022-08-18T03:12:17.092Z,0.0
2022-08-18T03:14:17.080Z,0.0
2022-08-18T03:16:17.080Z,0.0
2022-08-18T03:18:17.111Z,0.0
2022-08-18T03:20:17.112Z,0.0
2022-08-18T03:22:28.310Z,0.0
2022-08-18T03:24:22.438Z,0.0
2022-08-18T03:26:17.078Z,0.0
2022-08-18T03:28:17.108Z,0.0
2022-08-18T03:30:17.084Z,0.0
2022-08-18T03:32:17.477Z,0.0
2022-08-18T03:34:17.504Z,0.0
2022-08-18T03:36:17.481Z,0.0
2022-08-18T03:38:17.552Z,0.0
2022-08-18T03:40:17.663Z,0.0
2022-08-18T03:42:17.546Z,0.0
2022-08-18T03:44:17.496Z,0.0
2022-08-18T03:46:17.630Z,0.0
2022-08-18T03:48:17.604Z,0.0
2022-08-18T03:50:17.534Z,0.0
2022-08-18T03:52:17.602Z,0.0
2022-08-18T03:54:17.560Z,0.0
2022-08-18T03:56:17.731Z,0.0
2022-08-18T03:58:17.390Z,0.0
2022-08-18T04:00:17.569Z,0.0
2022-08-18T04:02:17.440Z,0.0
2022-08-18T04:04:17.270Z,0.0
2022-08-18T04:06:17.079Z,0.0
2022-08-18T04:08:17.101Z,0.0
2022-08-18T04:10:19.789Z,0.0
2022-08-18T04:12:17.464Z,0.0
2022-08-18T04:14:17.129Z,0.0
2022-08-18T04:16:17.137Z,0.0
2022-08-18T04:18:17.265Z,0.0
2022-08-18T04:20:17.127Z,0.0
2022-08-18T04:22:18.277Z,0.0
2022-08-18T04:24:17.143Z,0.0
2022-08-18T04:26:19.459Z,0.0
2022-08-18T04:28:17.139Z,0.0
2022-08-18T04:30:17.149Z,0.0
2022-08-18T04:32:17.120Z,0.0
2022-08-18T04:34:17.146Z,0.0
2022-08-18T04:36:20.544Z,0.0
2022-08-18T04:38:17.149Z,0.0
2022-08-18T04:40:20.289Z,0.0
2022-08-18T04:42:17.159Z,0.0
2022-08-18T04:44:17.161Z,0.0
2022-08-18T04:46:17.148Z,0.0
2022-08-18T04:48:17.153Z,0.0
2022-08-18T04:50:17.133Z,0.0
2022-08-18T04:52:37.667Z,0.0
2022-08-18T04:54:17.160Z,0.0
2022-08-18T04:56:17.209Z,0.0
2022-08-18T04:58:17.171Z,0.0
2022-08-18T05:00:17.136Z,0.0
2022-08-18T05:02:17.269Z,0.0
2022-08-18T05:04:17.218Z,0.0
2022-08-18T05:06:17.227Z,0.0
2022-08-18T05:08:17.220Z,0.0
2022-08-18T05:10:17.224Z,0.0
2022-08-18T05:12:17.211Z,0.0
2022-08-18T05:14:17.245Z,0.0
2022-08-18T05:16:27.424Z,0.0
2022-08-18T05:18:17.229Z,0.0
2022-08-18T05:20:17.236Z,0.0
2022-08-18T05:22:17.236Z,0.0
2022-08-18T05:24:17.240Z,0.0
2022-08-18T05:26:17.251Z,0.0
2022-08-18T05:28:17.264Z,0.0
2022-08-18T05:30:17.233Z,0.0
2022-08-18T05:32:42.483Z,0.0
2022-08-18T05:34:17.309Z,0.0
2022-08-18T05:36:17.241Z,0.0
2022-08-18T05:38:17.244Z,0.0
2022-08-18T05:40:17.347Z,0.0
2022-08-18T05:42:17.235Z,0.0
2022-08-18T05:44:17.240Z,0.0
2022-08-18T05:46:17.295Z,0.0
2022-08-18T05:48:17.247Z,0.0
2022-08-18T05:50:17.285Z,0.0
2022-08-18T05:52:17.265Z,0.0
2022-08-18T05:54:17.263Z,0.0
2022-08-18T05:56:17.266Z,0.0
2022-08-18T05:58:17.253Z,0.0
2022-08-18T06:00:17.276Z,0.0
2022-08-18T06:02:17.274Z,0.0
2022-08-18T06:04:17.271Z,0.0
2022-08-18T06:06:17.277Z,0.0
2022-08-18T06:08:17.251Z,0.0
2022-08-18T06:10:17.274Z,0.0
2022-08-18T06:12:17.304Z,0.0
2022-08-18T06:14:17.296Z,0.0
2022-08-18T06:16:17.292Z,0.0
2022-08-18T06:18:17.267Z,0.0
2022-08-18T06:20:17.289Z,0.0
2022-08-18T06:22:17.350Z,0.0
2022-08-18T06:24:17.298Z,0.0
2022-08-18T06:26:17.295Z,0.0
2022-08-18T06:28:17.298Z,0.0
2022-08-18T06:30:17.285Z,0.0
2022-08-18T06:32:17.286Z,0.0
2022-08-18T06:34:17.298Z,0.0
2022-08-18T06:36:19.244Z,0.0
2022-08-18T06:38:17.300Z,0.0
2022-08-18T06:40:17.418Z,0.0
2022-08-18T06:42:17.304Z,0.0
2022-08-18T06:44:17.315Z,0.0
2022-08-18T06:46:17.378Z,0.0
2022-08-18T06:48:17.315Z,0.0
2022-08-18T06:50:17.302Z,0.0
2022-08-18T06:52:17.324Z,0.2
2022-08-18T06:54:17.310Z,1.0
2022-08-18T06:56:25.780Z,0.2
2022-08-18T06:58:17.374Z,1.0
2022-08-18T07:00:17.638Z,0.0
2022-08-18T07:02:17.544Z,0.0
2022-08-18T07:04:17.515Z,0.0
2022-08-18T07:06:17.578Z,0.0
2022-08-18T07:08:18.547Z,0.5
2022-08-18T07:10:17.308Z,0.0
2022-08-18T07:12:17.291Z,0.8
2022-08-18T07:14:17.350Z,1.1
2022-08-18T07:16:23.178Z,0.2
2022-08-18T07:18:17.296Z,0.9
2022-08-18T07:20:17.294Z,0.3
2022-08-18T07:22:17.299Z,0.0
2022-08-18T07:24:25.609Z,0.0
2022-08-18T07:26:17.313Z,0.1
2022-08-18T07:28:17.393Z,0.0
2022-08-18T07:30:17.309Z,0.0
2022-08-18T07:32:21.318Z,0.4
2022-08-18T07:34:17.299Z,1.1
2022-08-18T07:36:17.350Z,0.0
2022-08-18T07:38:40.915Z,0.0
2022-08-18T07:40:17.419Z,0.0
2022-08-18T07:42:17.317Z,0.0
2022-08-18T07:44:17.315Z,0.0
2022-08-18T07:46:17.331Z,0.0
2022-08-18T07:48:52.852Z,0.5
2022-08-18T07:50:36.281Z,2.1
2022-08-18T07:52:36.474Z,0.9
2022-08-18T07:54:47.154Z,0.7
2022-08-18T07:56:17.317Z,0.0
2022-08-18T07:58:17.318Z,0.0
2022-08-18T08:00:20.795Z,0.0
2022-08-18T08:02:17.415Z,1.3
2022-08-18T08:04:25.266Z,1.2
2022-08-18T08:06:17.337Z,2.8
2022-08-18T08:08:17.335Z,1.9
2022-08-18T08:10:17.351Z,2.2
2022-08-18T08:12:17.352Z,0.2
2022-08-18T08:14:17.343Z,0.9
2022-08-18T08:16:17.365Z,1.8
2022-08-18T08:18:17.350Z,0.5
2022-08-18T08:20:17.355Z,1.0
2022-08-18T08:22:17.391Z,0.0
2022-08-18T08:24:17.453Z,0.0
2022-08-18T08:26:17.357Z,0.0
2022-08-18T08:28:17.337Z,1.2
2022-08-18T08:30:17.352Z,0.5
2022-08-18T08:32:17.364Z,0.0
2022-08-18T08:34:17.375Z,0.9
2022-08-18T08:36:17.365Z,0.0
2022-08-18T08:38:39.110Z,0.0
2022-08-18T08:40:17.502Z,1.1
2022-08-18T08:42:30.214Z,2.2
2022-08-18T08:44:17.411Z,3.0
2022-08-18T08:46:17.464Z,2.3
2022-08-18T08:48:17.498Z,2.8
2022-08-18T08:50:17.456Z,2.6
2022-08-18T08:52:18.921Z,2.2
2022-08-18T08:54:17.383Z,0.0
2022-08-18T08:56:17.393Z,0.7
2022-08-18T08:58:17.388Z,1.4
2022-08-18T09:00:17.550Z,1.5
2022-08-18T09:02:37.887Z,4.4
2022-08-18T09:04:17.391Z,3.9
2022-08-18T09:06:17.401Z,1.7
2022-08-18T09:08:17.382Z,2.9
2022-08-18T09:10:17.450Z,5.1
2022-08-18T09:12:17.420Z,1.0
2022-08-18T09:14:17.411Z,4.6
2022-08-18T09:16:17.400Z,2.5
2022-08-18T09:18:17.416Z,2.9
2022-08-18T09:20:17.508Z,4.1
2022-08-18T09:22:17.422Z,3.1
2022-08-18T09:24:17.409Z,1.7
2022-08-18T09:26:17.418Z,0.8
2022-08-18T09:28:17.418Z,2.3
2022-08-18T09:30:17.417Z,2.9
2022-08-18T09:32:17.429Z,1.6
2022-08-18T09:34:17.491Z,2.1
2022-08-18T09:36:20.149Z,3.3
2022-08-18T09:38:20.548Z,2.2
2022-08-18T09:40:17.578Z,5.1
2022-08-18T09:42:17.504Z,4.7
2022-08-18T09:44:21.224Z,3.0
2022-08-18T09:46:17.517Z,0.7
2022-08-18T09:48:20.695Z,2.0
2022-08-18T09:50:27.408Z,3.4
2022-08-18T09:52:17.507Z,3.0
2022-08-18T09:54:21.275Z,2.7
2022-08-18T09:56:19.619Z,4.7
2022-08-18T09:58:17.529Z,4.6
2022-08-18T10:00:17.516Z,4.8
2022-08-18T10:02:20.300Z,5.8
2022-08-18T10:04:21.702Z,3.8
2022-08-18T10:06:17.491Z,2.7
2022-08-18T10:08:21.410Z,3.2
2022-08-18T10:10:59.235Z,4.1
2022-08-18T10:12:17.502Z,4.3
2022-08-18T10:14:18.313Z,3.4
2022-08-18T10:16:17.532Z,1.1
2022-08-18T10:18:17.518Z,2.1
2022-08-18T10:20:25.709Z,1.0
2022-08-18T10:22:17.529Z,7.2
2022-08-18T10:24:36.129Z,5.3
2022-08-18T10:26:17.520Z,3.6
2022-08-18T10:28:17.507Z,3.2
2022-08-18T10:30:17.528Z,3.4
2022-08-18T10:32:17.520Z,5.3
2022-08-18T10:34:19.041Z,4.5
2022-08-18T10:36:17.534Z,2.8
2022-08-18T10:38:17.532Z,2.6
2022-08-18T10:40:18.518Z,2.4
2022-08-18T10:42:17.538Z,2.6
2022-08-18T10:45:24.865Z,2.1
2022-08-18T10:46:27.064Z,4.1
2022-08-18T10:48:17.659Z,4.8
2022-08-18T10:50:17.541Z,3.2
2022-08-18T10:52:18.146Z,0.4
2022-08-18T10:54:18.455Z,2.8
2022-08-18T10:56:17.574Z,1.8
2022-08-18T10:58:17.565Z,2.0
2022-08-18T11:00:17.581Z,5.4
2022-08-18T11:02:17.698Z,2.8
2022-08-18T11:04:33.526Z,2.1
2022-08-18T11:06:21.212Z,4.9
2022-08-18T11:08:17.577Z,5.9
2022-08-18T11:10:50.601Z,3.6
2022-08-18T11:12:17.598Z,0.8
2022-08-18T11:14:17.601Z,1.7
2022-08-18T11:16:17.592Z,2.6
2022-08-18T11:18:17.584Z,4.7
2022-08-18T11:21:22.905Z,2.0
2022-08-18T11:22:31.086Z,3.7
2022-08-18T11:24:17.648Z,4.6
2022-08-18T11:26:18.448Z,5.1
2022-08-18T11:28:18.297Z,1.4
2022-08-18T11:30:17.854Z,2.6
2022-08-18T11:32:17.837Z,1.3
2022-08-18T11:34:19.947Z,2.0
2022-08-18T11:36:17.603Z,2.7
2022-08-18T11:38:20.641Z,3.1
2022-08-18T11:40:42.565Z,3.1
2022-08-18T11:42:21.890Z,2.7
2022-08-18T11:44:17.656Z,4.9
2022-08-18T11:46:17.623Z,3.9
2022-08-18T11:48:20.651Z,2.3
2022-08-18T11:50:17.650Z,1.8
2022-08-18T11:53:23.952Z,2.3
2022-08-18T11:54:17.648Z,2.1
2022-08-18T11:56:17.703Z,2.8
2022-08-18T11:58:17.640Z,3.8
2022-08-18T12:01:22.985Z,2.9
2022-08-18T12:02:17.878Z,0.9
2022-08-18T12:04:17.646Z,2.5
2022-08-18T12:06:19.316Z,1.1
2022-08-18T12:08:41.586Z,0.1
2022-08-18T12:10:19.872Z,1.5
2022-08-18T12:13:27.836Z,0.5
2022-08-18T12:14:31.435Z,0.0
2022-08-18T12:16:17.710Z,0.4
2022-08-18T12:18:19.025Z,0.0
2022-08-18T12:20:17.714Z,0.0
2022-08-18T12:22:17.724Z,2.1
2022-08-18T12:24:17.618Z,1.2
2022-08-18T12:27:22.919Z,0.0
2022-08-18T12:28:17.629Z,0.3
2022-08-18T12:30:17.623Z,0.3
2022-08-18T12:32:49.666Z,0.0
2022-08-18T12:34:18.027Z,0.0
2022-08-18T12:36:18.965Z,0.0
2022-08-18T12:38:17.826Z,0.0
2022-08-18T12:40:17.784Z,0.0
2022-08-18T12:42:17.628Z,0.6
2022-08-18T12:44:18.375Z,0.6
2022-08-18T12:46:17.757Z,0.0
2022-08-18T12:48:17.659Z,0.0
2022-08-18T12:50:17.663Z,1.5
2022-08-18T12:52:17.939Z,4.1
2022-08-18T12:54:17.662Z,4.7
2022-08-18T12:56:17.845Z,5.2
2022-08-18T12:58:17.932Z,4.7
2022-08-18T13:00:18.677Z,6.2
2022-08-18T13:02:17.707Z,6.8
2022-08-18T13:04:18.617Z,3.1
2022-08-18T13:06:17.707Z,3.9
2022-08-18T13:08:30.719Z,3.3
2022-08-18T13:10:35.616Z,1.2
2022-08-18T13:12:17.732Z,5.5
2022-08-18T13:14:17.728Z,3.6
2022-08-18T13:16:30.695Z,3.4
2022-08-18T13:18:17.733Z,2.7
2022-08-18T13:20:17.790Z,3.8
2022-08-18T13:22:18.544Z,2.6
2022-08-18T13:24:22.046Z,3.0
2022-08-18T13:26:17.789Z,3.4
2022-08-18T13:28:18.060Z,3.6
2022-08-18T13:30:30.971Z,3.6
2022-08-18T13:32:17.736Z,2.4
2022-08-18T13:34:19.293Z,3.7
2022-08-18T13:36:17.761Z,2.6
2022-08-18T13:38:25.631Z,3.4
2022-08-18T13:40:17.884Z,1.3
2022-08-18T13:42:21.427Z,2.9
2022-08-18T13:44:18.704Z,3.7
2022-08-18T13:46:17.982Z,4.6
2022-08-18T13:48:17.741Z,2.3
2022-08-18T13:50:17.769Z,3.6
2022-08-18T13:52:33.417Z,3.9
2022-08-18T13:54:30.196Z,5.3
2022-08-18T13:56:17.854Z,2.5
2022-08-18T13:58:20.853Z,2.8
2022-08-18T14:00:27.773Z,3.3
2022-08-18T14:02:17.809Z,4.5
2022-08-18T14:04:20.413Z,3.7
2022-08-18T14:06:22.181Z,2.0
2022-08-18T14:08:19.427Z,1.6
2022-08-18T14:10:17.823Z,0.6
2022-08-18T14:12:23.140Z,1.9
2022-08-18T14:14:17.773Z,0.8
2022-08-18T14:16:18.773Z,2.2
2022-08-18T14:18:17.782Z,0.7
2022-08-18T14:20:21.816Z,4.6
2022-08-18T14:22:17.876Z,3.0
2022-08-18T14:24:17.852Z,5.4
2022-08-18T14:26:17.826Z,4.7
2022-08-18T14:28:18.299Z,4.1
2022-08-18T14:30:17.798Z,5.7
2022-08-18T14:32:21.902Z,4.2
2022-08-18T14:34:21.792Z,2.7
2022-08-18T14:36:18.168Z,2.9
2022-08-18T14:38:17.817Z,3.6
2022-08-18T14:40:17.917Z,3.7
2022-08-18T14:42:17.814Z,4.5
2022-08-18T14:44:23.597Z,3.7
2022-08-18T14:46:23.283Z,1.4
2022-08-18T14:48:17.822Z,2.2
2022-08-18T14:50:19.471Z,2.0
2022-08-18T14:52:17.828Z,1.9
2022-08-18T14:54:17.872Z,1.5
2022-08-18T14:56:17.804Z,1.6
2022-08-18T14:58:18.827Z,0.7
2022-08-18T15:00:20.982Z,2.8
2022-08-18T15:02:17.796Z,1.4
2022-08-18T15:04:18.327Z,1.6
2022-08-18T15:06:22.859Z,2.3
2022-08-18T15:08:17.845Z,1.5
2022-08-18T15:10:19.844Z,0.9
2022-08-18T15:12:17.927Z,1.2
2022-08-18T15:14:17.982Z,1.1
2022-08-18T15:16:17.836Z,2.1
2022-08-18T15:18:22.522Z,1.9
2022-08-18T15:20:17.847Z,0.2
2022-08-18T15:22:18.025Z,1.4
2022-08-18T15:24:20.190Z,2.3
2022-08-18T15:26:17.832Z,0.3
2022-08-18T15:28:17.836Z,0.9
2022-08-18T15:30:19.463Z,0.0
2022-08-18T15:32:18.381Z,0.0
2022-08-18T15:34:20.580Z,0.0
2022-08-18T15:36:18.303Z,0.0
2022-08-18T15:38:18.322Z,1.1
2022-08-18T15:40:30.187Z,1.7
2022-08-18T15:42:18.260Z,1.1
2022-08-18T15:44:18.312Z,2.6
2022-08-18T15:46:17.857Z,0.4
2022-08-18T15:48:18.481Z,1.3
2022-08-18T15:50:21.782Z,1.1
2022-08-18T15:52:19.878Z,1.2
2022-08-18T15:54:17.897Z,0.0
2022-08-18T15:56:20.923Z,0.0
2022-08-18T15:58:18.221Z,1.1
2022-08-18T16:00:17.936Z,1.8
2022-08-18T16:02:19.379Z,2.6
2022-08-18T16:04:17.962Z,0.8
2022-08-18T16:06:17.878Z,0.1
2022-08-18T16:08:17.900Z,1.5
2022-08-18T16:10:17.884Z,0.0
2022-08-18T16:12:17.884Z,2.8
2022-08-18T16:14:17.889Z,0.1
2022-08-18T16:16:29.300Z,0.0
2022-08-18T16:18:17.920Z,0.0
2022-08-18T16:20:18.083Z,0.1
2022-08-18T16:22:17.903Z,0.1
2022-08-18T16:24:18.415Z,0.1
2022-08-18T16:26:23.181Z,0.0
2022-08-18T16:28:17.946Z,0.0
2022-08-18T16:30:17.948Z,0.3
2022-08-18T16:32:17.903Z,0.0
2022-08-18T16:34:17.897Z,0.0
2022-08-18T16:36:17.906Z,0.0
2022-08-18T16:38:17.905Z,0.0
2022-08-18T16:40:17.909Z,0.0
2022-08-18T16:42:17.904Z,0.0
2022-08-18T16:44:17.932Z,0.0
2022-08-18T16:46:17.933Z,0.5
2022-08-18T16:48:18.007Z,0.4
2022-08-18T16:50:17.968Z,0.8
2022-08-18T16:52:17.956Z,1.0
2022-08-18T16:54:18.003Z,0.7
2022-08-18T16:56:17.945Z,0.0
2022-08-18T16:58:17.925Z,0.3
2022-08-18T17:00:18.054Z,1.3
2022-08-18T17:02:18.143Z,0.1
2022-08-18T17:04:20.889Z,1.1
2022-08-18T17:06:17.911Z,0.0
2022-08-18T17:08:17.908Z,0.0
2022-08-18T17:10:17.907Z,0.0
2022-08-18T17:12:18.098Z,0.0
2022-08-18T17:14:19.659Z,0.0
2022-08-18T17:16:17.934Z,0.0
2022-08-18T17:18:18.045Z,0.0
2022-08-18T17:20:19.254Z,0.1
2022-08-18T17:22:18.601Z,1.7
2022-08-18T17:24:19.702Z,1.9
2022-08-18T17:26:17.941Z,0.0
2022-08-18T17:28:18.250Z,0.6
2022-08-18T17:30:17.948Z,1.1
2022-08-18T17:32:17.963Z,2.0
2022-08-18T17:34:18.200Z,1.7
2022-08-18T17:36:17.978Z,1.5
2022-08-18T17:38:17.927Z,2.6
2022-08-18T17:40:17.985Z,2.6
2022-08-18T17:42:17.949Z,1.6
2022-08-18T17:44:18.253Z,1.5
2022-08-18T17:46:18.093Z,3.1
2022-08-18T17:48:18.156Z,0.2
2022-08-18T17:50:28.222Z,0.8
2022-08-18T17:52:18.178Z,1.8
2022-08-18T17:54:18.008Z,1.0
2022-08-18T17:56:17.963Z,0.5
2022-08-18T17:58:18.103Z,1.4
2022-08-18T18:00:18.873Z,0.0
2022-08-18T18:02:28.874Z,1.2
2022-08-18T18:04:18.189Z,0.7
2022-08-18T18:06:18.156Z,2.3
2022-08-18T18:08:18.302Z,3.0
2022-08-18T18:10:18.010Z,0.2
2022-08-18T18:12:18.017Z,1.2
2022-08-18T18:14:18.035Z,1.2
2022-08-18T18:16:18.236Z,0.8
2022-08-18T18:18:18.417Z,1.5
2022-08-18T18:20:19.576Z,3.1
2022-08-18T18:22:18.277Z,0.0
2022-08-18T18:24:23.745Z,0.0
2022-08-18T18:26:18.053Z,0.4
2022-08-18T18:28:18.040Z,0.5
2022-08-18T18:30:19.206Z,0.4
2022-08-18T18:32:18.359Z,0.6
2022-08-18T18:34:23.220Z,1.4
2022-08-18T18:36:18.294Z,0.0
2022-08-18T18:38:18.434Z,0.8
2022-08-18T18:40:18.361Z,2.4
2022-08-18T18:42:18.196Z,1.4
2022-08-18T18:44:18.352Z,0.1
2022-08-18T18:46:19.366Z,1.4
2022-08-18T18:48:43.587Z,0.3
2022-08-18T18:50:18.187Z,0.1
2022-08-18T18:52:19.198Z,0.7
2022-08-18T18:54:22.949Z,1.0
2022-08-18T18:56:18.154Z,0.7
2022-08-18T18:58:18.109Z,2.4
2022-08-18T19:00:20.582Z,1.1
2022-08-18T19:02:34.714Z,0.5
2022-08-18T19:04:18.333Z,2.5
2022-08-18T19:06:18.183Z,5.1
2022-08-18T19:08:18.081Z,4.3
2022-08-18T19:10:18.125Z,2.7
2022-08-18T19:12:18.421Z,4.0
2022-08-18T19:14:18.318Z,1.4
2022-08-18T19:16:23.943Z,3.6
2022-08-18T19:18:18.267Z,2.3
2022-08-18T19:20:23.093Z,6.6
2022-08-18T19:22:19.402Z,9.3
2022-08-18T19:24:18.227Z,5.7
2022-08-18T19:26:18.073Z,4.1
2022-08-18T19:28:18.197Z,3.2
2022-08-18T19:30:18.360Z,2.9
2022-08-18T19:32:18.339Z,4.4
2022-08-18T19:34:19.159Z,2.9
2022-08-18T19:36:19.832Z,3.8
2022-08-18T19:38:18.188Z,6.1
2022-08-18T19:40:19.235Z,4.5
2022-08-18T19:42:19.063Z,6.0
2022-08-18T19:44:18.346Z,3.8
2022-08-18T19:46:18.063Z,4.7
2022-08-18T19:48:18.606Z,3.1
2022-08-18T19:50:18.223Z,3.4
2022-08-18T19:52:46.425Z,5.6
2022-08-18T19:54:18.115Z,4.6
2022-08-18T19:56:21.585Z,2.8
2022-08-18T19:58:18.072Z,3.0
2022-08-18T20:00:18.397Z,6.3
2022-08-18T20:02:18.388Z,3.6
2022-08-18T20:04:18.288Z,4.6
2022-08-18T20:06:34.739Z,3.1
2022-08-18T20:08:18.173Z,3.4
2022-08-18T20:10:18.199Z,3.2
2022-08-18T20:12:18.166Z,6.6
2022-08-18T20:14:18.166Z,6.5
2022-08-18T20:16:18.190Z,4.3
2022-08-18T20:18:18.162Z,3.3
2022-08-18T20:20:18.147Z,3.0
2022-08-18T20:22:21.727Z,3.9
2022-08-18T20:24:18.193Z,4.8
2022-08-18T20:26:18.410Z,3.2
2022-08-18T20:28:23.149Z,3.4
2022-08-18T20:30:18.374Z,3.5
2022-08-18T20:32:19.113Z,3.2
2022-08-18T20:34:18.278Z,4.3
2022-08-18T20:36:18.205Z,4.5
2022-08-18T20:38:18.219Z,3.1
2022-08-18T20:40:18.272Z,3.8
2022-08-18T20:42:18.174Z,2.9
2022-08-18T20:44:21.923Z,2.6
2022-08-18T20:46:18.185Z,3.7
2022-08-18T20:48:18.193Z,2.7
2022-08-18T20:50:18.269Z,3.4
2022-08-18T20:52:18.597Z,1.3
2022-08-18T20:54:18.452Z,2.8
2022-08-18T20:56:32.055Z,1.4
2022-08-18T20:58:18.280Z,1.9
2022-08-18T21:00:26.664Z,3.4
2022-08-18T21:02:23.231Z,2.5
2022-08-18T21:04:18.303Z,2.5
2022-08-18T21:06:18.260Z,2.0
2022-08-18T21:08:18.296Z,0.7
2022-08-18T21:10:18.270Z,2.8
2022-08-18T21:12:18.200Z,4.1
2022-08-18T21:14:18.225Z,4.1
2022-08-18T21:16:26.431Z,2.9
2022-08-18T21:18:18.203Z,4.5
2022-08-18T21:20:18.322Z,3.4
2022-08-18T21:22:18.309Z,3.9
2022-08-18T21:24:18.370Z,2.4
2022-08-18T21:26:18.340Z,2.3
2022-08-18T21:28:18.213Z,4.7
2022-08-18T21:30:18.226Z,3.8
2022-08-18T21:32:18.216Z,2.4
2022-08-18T21:34:18.232Z,3.0
2022-08-18T21:36:18.506Z,3.2
2022-08-18T21:38:18.220Z,1.7
2022-08-18T21:40:18.218Z,2.3
2022-08-18T21:42:18.231Z,3.0
2022-08-18T21:44:18.235Z,1.3
2022-08-18T21:46:18.238Z,2.3
2022-08-18T21:48:18.326Z,1.8
2022-08-18T21:50:18.241Z,2.5
2022-08-18T21:52:18.238Z,2.3
2022-08-18T21:54:18.237Z,1.1
2022-08-18T21:56:18.272Z,2.0
2022-08-18T21:58:18.284Z,1.3
2022-08-18T22:00:18.236Z,2.0
2022-08-18T22:02:18.247Z,2.9
2022-08-18T22:04:18.257Z,1.6
2022-08-18T22:06:18.262Z,1.4
2022-08-18T22:08:18.322Z,1.9
2022-08-18T22:10:18.249Z,1.5
2022-08-18T22:12:18.270Z,1.5
2022-08-18T22:14:18.307Z,0.7
2022-08-18T22:16:19.107Z,2.7
2022-08-18T22:18:18.715Z,1.7
2022-08-18T22:20:18.557Z,0.8
2022-08-18T22:22:18.269Z,1.9
2022-08-18T22:24:18.278Z,1.5
2022-08-18T22:26:18.255Z,0.9
2022-08-18T22:28:18.295Z,0.2
2022-08-18T22:30:18.278Z,1.1
2022-08-18T22:32:18.283Z,2.4
2022-08-18T22:34:18.271Z,1.5
2022-08-18T22:36:18.273Z,2.1
2022-08-18T22:38:18.285Z,2.0
2022-08-18T22:40:21.551Z,3.0
2022-08-18T22:42:18.307Z,3.3
2022-08-18T22:44:18.276Z,3.3
2022-08-18T22:46:21.646Z,3.2
2022-08-18T22:48:18.295Z,2.8
2022-08-18T22:50:18.295Z,3.5
2022-08-18T22:52:18.295Z,3.0
2022-08-18T22:54:18.361Z,2.0
2022-08-18T22:56:22.752Z,3.6
2022-08-18T22:58:20.206Z,4.2
2022-08-18T23:00:18.312Z,3.0
2022-08-18T23:02:21.940Z,3.4
2022-08-18T23:04:18.476Z,3.6
2022-08-18T23:06:18.295Z,3.6
2022-08-18T23:08:18.292Z,1.5
2022-08-18T23:10:18.309Z,4.3
2022-08-18T23:12:18.287Z,3.4
2022-08-18T23:14:18.292Z,4.3
2022-08-18T23:16:31.183Z,3.8
2022-08-18T23:18:18.304Z,4.2
2022-08-18T23:20:19.415Z,2.6
2022-08-18T23:22:18.319Z,4.2
2022-08-18T23:24:18.315Z,2.1
2022-08-18T23:26:18.335Z,2.0
2022-08-18T23:28:18.332Z,3.4
2022-08-18T23:30:18.301Z,4.0
2022-08-18T23:32:18.308Z,2.1
2022-08-18T23:34:18.317Z,1.3
2022-08-18T23:36:18.599Z,2.3
2022-08-18T23:38:18.338Z,0.8
2022-08-18T23:40:18.347Z,3.1
2022-08-18T23:42:18.342Z,2.6
2022-08-18T23:44:18.362Z,0.3
2022-08-18T23:46:18.328Z,2.0
2022-08-18T23:48:18.362Z,2.6
2022-08-18T23:50:18.356Z,3.3
2022-08-18T23:52:18.343Z,3.9
2022-08-18T23:54:18.365Z,4.3
2022-08-18T23:56:18.344Z,2.6
2022-08-18T23:58:18.363Z,4.5
